aviador You're here:

KVSF Decoded Metar

SPRINGFIELD in VT, USA
Report Time2017-04-25 07:54:00
UTC Time2017-04-25 08:34:02
Flight Rules vfr VFR
WindCalm
Visibility9999 m
Phenomena:N/A
Clouds:N/A
Expected CloudBase > 1,200 ft AGL from Temp-Dew spread
CeilingNone
Temp05°C (ISA -9)
Dew Point02°C (81% RH)
AAT3.3°C
QNH1023 hPa
Density Alt-735 ft
Elevation574 ft
Report Wrong Elevation
Raw Report
KVSF 250754Z AUTO 00000KT 10SM CLR 05/02 A3021 RMK AO2 SLP233
T00500022=

Extra information for KVSF:More info

Metar Taf Metar & Taf Last 4 Metars F.Rules Stats Wind Profile Meteogram Temp Stats Airport Information Weather charts Add Link Nearby VenuesMetar ALERT Operation Metar Decoded Social comments

AIRNAV info for KVSF